Union Hill, Texas
Current Conditions -  °F | °C
As of 2:15 PM on Wednesday 26 Nov 2014 (Local Time) from KOSA Reporting Station
Clear Clear  
Wind Chill: 65°   Ceiling: Unl
Heat Index: 65°   Visibility: 10mi
Dew Point: 31°   Wind: 14mph
Humidity: 28%   Direction: 300°WNW
Pressure: 30.15"   Gusts: 18mph
Location:  32.7353°N, 94.9492°W
Report Text: KOSA 262015Z AUTO 30012G16KT 10SM CLR 18/M01 A3015 RMK AO1 T01841006
Loading
Personal Weather Stations






























Interactive Weather Map New forecast layout! Learn more

10-Day Weather Forecast

Advertisements
Track Severe Weather on mobile